createdAt,value
2022-07-29T00:00:32.183Z,55.19
2022-07-29T00:03:07.115Z,55.11
2022-07-29T00:05:43.699Z,55.55
2022-07-29T00:08:20.758Z,55.24
2022-07-29T00:10:51.325Z,55.36
2022-07-29T00:13:32.440Z,55.15
2022-07-29T00:16:11.264Z,55.50
2022-07-29T00:18:46.836Z,54.91
2022-07-29T00:21:19.848Z,55.33
2022-07-29T00:24:00.176Z,55.20
2022-07-29T00:26:34.198Z,55.19
2022-07-29T00:32:06.064Z,55.04
2022-07-29T00:34:54.912Z,55.43
2022-07-29T00:37:31.091Z,55.14
2022-07-29T00:39:58.504Z,55.59
2022-07-29T00:42:28.871Z,55.21
2022-07-29T00:45:09.501Z,54.83
2022-07-29T00:47:37.015Z,55.11
2022-07-29T00:50:11.973Z,55.33
2022-07-29T00:52:48.460Z,54.83
2022-07-29T00:55:37.360Z,55.74
2022-07-29T00:58:40.522Z,55.13
2022-07-29T01:01:15.617Z,55.29
2022-07-29T01:03:57.404Z,54.95
2022-07-29T01:06:31.009Z,55.04
2022-07-29T01:09:02.103Z,55.87
2022-07-29T01:11:40.030Z,55.83
2022-07-29T01:14:11.034Z,55.38
2022-07-29T01:16:50.897Z,55.59
2022-07-29T01:19:50.654Z,55.76
2022-07-29T01:23:07.177Z,55.63
2022-07-29T01:26:08.127Z,55.19
2022-07-29T01:29:10.385Z,55.77
2022-07-29T01:32:32.563Z,55.32
2022-07-29T01:35:14.869Z,55.13
2022-07-29T01:38:11.172Z,55.17
2022-07-29T01:40:55.998Z,54.99
2022-07-29T01:43:54.107Z,55.40
2022-07-29T01:46:35.151Z,55.33
2022-07-29T01:49:27.456Z,55.18
2022-07-29T01:52:25.934Z,55.63
2022-07-29T01:55:14.054Z,55.30
2022-07-29T01:57:49.651Z,55.60
2022-07-29T02:00:29.831Z,55.08
2022-07-29T02:03:01.067Z,55.03
2022-07-29T02:05:30.695Z,55.11
2022-07-29T02:08:00.306Z,55.53
2022-07-29T02:10:31.222Z,55.21
2022-07-29T02:13:00.257Z,55.15
2022-07-29T02:15:30.639Z,55.17
2022-07-29T02:18:07.814Z,55.45
2022-07-29T02:20:36.105Z,54.80
2022-07-29T02:23:04.753Z,55.14
2022-07-29T02:25:37.526Z,55.05
2022-07-29T02:28:08.019Z,55.24
2022-07-29T02:30:41.687Z,55.28
2022-07-29T02:33:11.434Z,55.12
2022-07-29T02:35:41.628Z,55.17
2022-07-29T02:38:32.514Z,55.16
2022-07-29T02:41:02.987Z,55.22
2022-07-29T02:43:34.195Z,54.77
2022-07-29T02:46:05.231Z,54.54
2022-07-29T02:48:45.536Z,55.03
2022-07-29T02:51:44.135Z,54.86
2022-07-29T02:54:22.381Z,55.54
2022-07-29T02:56:54.101Z,54.83
2022-07-29T03:02:43.569Z,55.23
2022-07-29T03:05:14.521Z,55.05
2022-07-29T03:07:44.448Z,54.94
2022-07-29T03:10:13.702Z,55.16
2022-07-29T03:12:42.237Z,54.95
2022-07-29T03:15:10.792Z,54.60
2022-07-29T03:17:39.041Z,55.02
2022-07-29T03:20:08.899Z,54.62
2022-07-29T03:22:44.887Z,55.11
2022-07-29T03:25:13.693Z,55.51
2022-07-29T03:27:41.714Z,55.37
2022-07-29T03:30:10.101Z,55.13
2022-07-29T03:32:37.660Z,55.11
2022-07-29T03:35:09.371Z,55.50
2022-07-29T03:37:37.761Z,55.49
2022-07-29T03:40:09.909Z,55.66
2022-07-29T03:42:41.598Z,55.68
2022-07-29T03:45:12.350Z,56.27
2022-07-29T03:47:51.140Z,55.80
2022-07-29T03:50:22.157Z,55.88
2022-07-29T03:52:49.912Z,55.73
2022-07-29T03:55:17.590Z,56.05
2022-07-29T03:57:46.279Z,55.42
2022-07-29T04:00:15.205Z,55.76
2022-07-29T04:02:48.260Z,55.52
2022-07-29T04:05:16.990Z,55.80
2022-07-29T04:07:49.054Z,55.55
2022-07-29T04:10:30.455Z,56.10
2022-07-29T04:13:01.553Z,55.97
2022-07-29T04:15:38.563Z,55.72
2022-07-29T04:18:07.882Z,56.12
2022-07-29T04:20:35.668Z,56.18
2022-07-29T04:23:02.973Z,56.04
2022-07-29T04:25:30.448Z,55.90
2022-07-29T04:28:03.584Z,55.80
2022-07-29T04:30:33.069Z,55.69
2022-07-29T04:33:02.100Z,56.17
2022-07-29T04:35:37.968Z,56.21
2022-07-29T04:38:07.832Z,55.75
2022-07-29T04:40:43.486Z,55.76
2022-07-29T04:43:11.975Z,55.89
2022-07-29T04:45:43.203Z,56.11
2022-07-29T04:48:10.727Z,55.49
2022-07-29T04:50:42.134Z,55.87
2022-07-29T04:53:10.055Z,55.49
2022-07-29T04:55:39.043Z,55.36
2022-07-29T04:58:06.853Z,55.45
2022-07-29T05:00:34.213Z,54.81
2022-07-29T05:03:05.128Z,55.09
2022-07-29T05:05:36.104Z,54.52
2022-07-29T05:08:06.669Z,54.29
2022-07-29T05:10:40.082Z,55.40
2022-07-29T05:13:11.390Z,55.49
2022-07-29T05:15:41.164Z,54.59
2022-07-29T05:18:08.718Z,54.76
2022-07-29T05:20:40.233Z,54.31
2022-07-29T05:23:07.950Z,54.62
2022-07-29T05:25:42.945Z,54.13
2022-07-29T05:28:12.989Z,54.78
2022-07-29T05:30:40.672Z,54.44
2022-07-29T05:33:08.190Z,54.29
2022-07-29T05:35:45.089Z,54.73
2022-07-29T05:38:12.317Z,54.11
2022-07-29T05:40:42.582Z,54.46
2022-07-29T05:43:19.310Z,54.04
2022-07-29T05:45:49.915Z,53.77
2022-07-29T05:48:32.100Z,54.49
2022-07-29T05:51:04.089Z,53.69
2022-07-29T05:53:32.387Z,53.52
2022-07-29T05:56:11.219Z,53.96
2022-07-29T05:58:39.015Z,53.39
2022-07-29T06:01:06.918Z,53.93
2022-07-29T06:03:37.199Z,53.40
2022-07-29T06:06:05.761Z,53.75
2022-07-29T06:08:43.480Z,53.55
2022-07-29T06:11:18.973Z,53.35
2022-07-29T06:13:47.639Z,53.56
2022-07-29T06:16:15.841Z,53.28
2022-07-29T06:19:07.343Z,53.08
2022-07-29T06:21:35.010Z,53.05
2022-07-29T06:24:08.751Z,53.02
2022-07-29T06:26:39.669Z,53.22
2022-07-29T06:29:14.376Z,53.12
2022-07-29T06:31:48.610Z,53.58
2022-07-29T06:34:18.509Z,52.83
2022-07-29T06:36:47.609Z,52.49
2022-07-29T06:39:17.080Z,52.49
2022-07-29T06:41:56.698Z,52.80
2022-07-29T06:44:28.998Z,52.57
2022-07-29T06:46:57.198Z,52.44
2022-07-29T06:49:26.503Z,52.65
2022-07-29T06:52:01.039Z,52.73
2022-07-29T06:55:03.485Z,52.30
2022-07-29T06:57:36.300Z,52.70
2022-07-29T07:00:09.189Z,53.22
2022-07-29T07:02:45.658Z,53.31
2022-07-29T07:05:24.144Z,53.06
2022-07-29T07:08:01.293Z,52.89
2022-07-29T07:10:29.257Z,52.87
2022-07-29T07:13:04.318Z,52.44
2022-07-29T07:15:40.562Z,52.46
2022-07-29T07:18:11.617Z,52.66
2022-07-29T07:20:46.423Z,52.36
2022-07-29T07:23:19.758Z,52.14
2022-07-29T07:25:54.303Z,53.45
2022-07-29T07:28:28.081Z,53.27
2022-07-29T07:30:57.043Z,53.86
2022-07-29T07:33:46.291Z,53.67
2022-07-29T07:36:22.012Z,53.15
2022-07-29T07:38:49.973Z,53.35
2022-07-29T07:41:32.329Z,53.58
2022-07-29T07:44:04.150Z,53.80
2022-07-29T07:46:39.759Z,53.58
2022-07-29T07:52:06.472Z,52.73
2022-07-29T07:54:46.785Z,51.65
2022-07-29T07:57:15.624Z,51.64
2022-07-29T07:59:59.108Z,51.27
2022-07-29T08:02:26.630Z,50.91
2022-07-29T08:05:02.916Z,51.88
2022-07-29T08:07:40.735Z,53.27
2022-07-29T08:10:13.372Z,52.68
2022-07-29T08:12:47.688Z,52.03
2022-07-29T08:15:22.147Z,52.21
2022-07-29T08:18:04.151Z,51.02
2022-07-29T08:20:40.411Z,51.18
2022-07-29T08:23:12.570Z,51.10
2022-07-29T08:25:44.089Z,50.99
2022-07-29T08:28:19.457Z,50.25
2022-07-29T08:30:50.015Z,49.98
2022-07-29T08:33:27.827Z,50.81
2022-07-29T08:36:00.187Z,49.49
2022-07-29T08:38:35.917Z,49.06
2022-07-29T08:41:13.421Z,47.79
2022-07-29T08:43:53.923Z,47.86
2022-07-29T08:49:33.118Z,46.94
2022-07-29T08:52:09.490Z,46.88
2022-07-29T08:54:37.206Z,46.22
2022-07-29T08:57:05.283Z,45.96
2022-07-29T08:59:44.615Z,45.58
2022-07-29T09:02:23.793Z,45.33
2022-07-29T09:05:00.266Z,44.83
2022-07-29T09:07:46.259Z,44.72
2022-07-29T09:10:15.562Z,45.04
2022-07-29T09:12:46.361Z,45.39
2022-07-29T09:15:17.951Z,44.63
2022-07-29T09:17:54.471Z,43.85
2022-07-29T09:20:24.330Z,43.67
2022-07-29T09:23:11.612Z,43.39
2022-07-29T09:25:51.918Z,42.98
2022-07-29T09:28:26.611Z,42.81
2022-07-29T09:31:20.916Z,43.22
2022-07-29T09:34:05.862Z,44.24
2022-07-29T09:36:48.664Z,44.63
2022-07-29T09:39:29.209Z,45.02
2022-07-29T09:42:02.532Z,46.19
2022-07-29T09:44:51.591Z,46.35
2022-07-29T09:47:51.239Z,46.20
2022-07-29T09:50:30.494Z,46.86
2022-07-29T09:53:03.219Z,46.96
2022-07-29T09:56:07.431Z,46.83
2022-07-29T09:59:02.568Z,47.32
2022-07-29T10:01:37.462Z,46.59
2022-07-29T10:04:08.967Z,46.59
2022-07-29T10:07:03.843Z,46.29
2022-07-29T10:10:13.150Z,46.71
2022-07-29T10:13:13.579Z,45.25
2022-07-29T10:18:40.853Z,43.46
2022-07-29T10:21:35.752Z,43.75
2022-07-29T10:24:23.820Z,43.08
2022-07-29T10:27:04.315Z,42.75
2022-07-29T10:29:44.085Z,43.54
2022-07-29T10:32:29.541Z,42.45
2022-07-29T10:35:47.233Z,43.62
2022-07-29T10:38:45.756Z,43.73
2022-07-29T10:41:44.346Z,43.74
2022-07-29T10:44:41.744Z,43.99
2022-07-29T10:47:35.052Z,44.14
2022-07-29T10:50:16.902Z,44.95
2022-07-29T10:52:52.545Z,44.24
2022-07-29T10:55:53.087Z,45.28
2022-07-29T10:58:31.674Z,44.74
2022-07-29T11:01:41.119Z,44.02
2022-07-29T11:04:55.210Z,44.24
2022-07-29T11:07:41.467Z,44.59
2022-07-29T11:10:26.934Z,45.34
2022-07-29T11:13:30.424Z,46.30
2022-07-29T11:16:15.991Z,46.10
2022-07-29T11:19:26.767Z,47.12
2022-07-29T11:22:19.095Z,46.91
2022-07-29T11:25:42.375Z,46.57
2022-07-29T11:28:26.684Z,46.21
2022-07-29T11:31:17.467Z,45.76
2022-07-29T11:34:54.479Z,45.90
2022-07-29T11:37:42.524Z,46.70
2022-07-29T11:40:33.470Z,46.35
2022-07-29T11:43:13.641Z,46.07
2022-07-29T11:45:57.887Z,46.62
2022-07-29T11:51:56.785Z,48.91
2022-07-29T11:54:57.797Z,48.54
2022-07-29T11:57:46.592Z,49.05
2022-07-29T12:00:50.182Z,49.04
2022-07-29T12:03:36.088Z,48.61
2022-07-29T12:06:24.011Z,47.38
2022-07-29T12:09:03.801Z,47.76
2022-07-29T12:11:52.300Z,47.44
2022-07-29T12:14:32.394Z,46.86
2022-07-29T12:17:30.467Z,46.18
2022-07-29T12:20:09.328Z,44.21
2022-07-29T12:22:50.208Z,43.98
2022-07-29T12:25:32.318Z,44.10
2022-07-29T12:28:10.974Z,44.06
2022-07-29T12:30:58.207Z,44.99
2022-07-29T12:33:37.441Z,43.57
2022-07-29T12:36:17.609Z,43.16
2022-07-29T12:39:06.586Z,42.44
2022-07-29T12:41:37.249Z,42.04
2022-07-29T12:44:24.392Z,43.23
2022-07-29T12:47:10.374Z,43.59
2022-07-29T12:49:51.112Z,44.63
2022-07-29T12:52:32.900Z,45.04
2022-07-29T12:55:14.270Z,44.73
2022-07-29T12:58:05.023Z,44.52
2022-07-29T13:00:39.994Z,44.38
2022-07-29T13:03:18.428Z,44.14
2022-07-29T13:08:44.141Z,44.36
2022-07-29T13:14:49.632Z,44.15
2022-07-29T13:17:32.891Z,44.69
2022-07-29T13:20:29.533Z,44.45
2022-07-29T13:23:12.264Z,45.02
2022-07-29T13:25:50.198Z,45.42
2022-07-29T13:31:52.908Z,45.63
2022-07-29T13:34:32.406Z,45.06
2022-07-29T13:37:03.652Z,45.34
2022-07-29T13:39:44.029Z,45.85
2022-07-29T13:42:33.203Z,46.18
2022-07-29T13:45:08.146Z,46.09
2022-07-29T13:47:49.191Z,45.97
2022-07-29T13:50:19.458Z,45.97
2022-07-29T13:52:54.867Z,46.39
2022-07-29T13:55:39.101Z,46.48
2022-07-29T13:58:12.406Z,45.84
2022-07-29T14:00:45.902Z,45.73
2022-07-29T14:03:32.045Z,45.89
2022-07-29T14:06:05.594Z,45.94
2022-07-29T14:08:38.771Z,45.59
2022-07-29T14:11:07.793Z,45.51
2022-07-29T14:13:46.129Z,45.56
2022-07-29T14:16:52.375Z,45.20
2022-07-29T14:19:48.970Z,45.48
2022-07-29T14:22:25.477Z,45.06
2022-07-29T14:27:38.688Z,45.59
2022-07-29T14:30:10.482Z,45.03
2022-07-29T14:32:38.700Z,44.68
2022-07-29T14:35:10.544Z,44.61
2022-07-29T14:37:40.566Z,44.45
2022-07-29T14:40:14.116Z,44.21
2022-07-29T14:42:44.840Z,43.86
2022-07-29T14:45:17.100Z,43.50
2022-07-29T14:47:53.392Z,43.49
2022-07-29T14:50:31.462Z,43.40
2022-07-29T14:53:06.704Z,42.88
2022-07-29T14:55:35.606Z,42.73
2022-07-29T15:01:30.501Z,42.55
2022-07-29T15:03:59.899Z,41.44
2022-07-29T15:06:29.564Z,41.13
2022-07-29T15:08:57.188Z,41.54
2022-07-29T15:11:24.953Z,40.77
2022-07-29T15:13:53.719Z,40.80
2022-07-29T15:16:31.420Z,40.29
2022-07-29T15:19:11.924Z,41.09
2022-07-29T15:21:48.603Z,41.35
2022-07-29T15:24:23.022Z,40.98
2022-07-29T15:26:52.964Z,40.91
2022-07-29T15:29:22.443Z,40.66
2022-07-29T15:31:54.283Z,41.42
2022-07-29T15:34:25.168Z,41.26
2022-07-29T15:36:54.386Z,40.51
2022-07-29T15:39:24.458Z,40.81
2022-07-29T15:41:53.747Z,40.43
2022-07-29T15:44:24.908Z,39.99
2022-07-29T15:47:06.185Z,39.97
2022-07-29T15:49:49.376Z,39.80
2022-07-29T15:52:24.991Z,39.70
2022-07-29T15:55:03.261Z,40.18
2022-07-29T15:57:32.066Z,40.26
2022-07-29T16:00:00.410Z,40.34
2022-07-29T16:02:27.900Z,40.49
2022-07-29T16:05:02.826Z,40.81
2022-07-29T16:07:33.933Z,40.99
2022-07-29T16:10:03.722Z,41.79
2022-07-29T16:12:37.593Z,42.55
2022-07-29T16:15:09.751Z,43.27
2022-07-29T16:17:41.489Z,44.28
2022-07-29T16:20:15.707Z,46.98
2022-07-29T16:22:43.396Z,48.06
2022-07-29T16:25:12.716Z,48.67
2022-07-29T16:27:45.731Z,49.68
2022-07-29T16:30:23.958Z,50.14
2022-07-29T16:33:15.561Z,50.76
2022-07-29T16:35:51.960Z,49.09
2022-07-29T16:38:23.461Z,50.17
2022-07-29T16:40:58.946Z,50.97
2022-07-29T16:43:37.289Z,51.44
2022-07-29T16:46:35.076Z,53.51
2022-07-29T16:49:12.606Z,52.64
2022-07-29T16:51:58.244Z,51.39
2022-07-29T16:54:45.640Z,51.39
2022-07-29T16:57:16.681Z,51.29
2022-07-29T17:00:18.843Z,49.61
2022-07-29T17:02:50.540Z,49.55
2022-07-29T17:05:22.179Z,50.58
2022-07-29T17:10:33.800Z,50.21
2022-07-29T17:13:10.887Z,50.01
2022-07-29T17:15:43.085Z,48.96
2022-07-29T17:18:12.478Z,49.19
2022-07-29T17:20:51.020Z,49.83
2022-07-29T17:23:19.963Z,50.20
2022-07-29T17:25:48.453Z,49.41
2022-07-29T17:28:22.423Z,49.98
2022-07-29T17:30:58.778Z,50.75
2022-07-29T17:33:38.159Z,51.21
2022-07-29T17:36:27.005Z,51.20
2022-07-29T17:39:11.630Z,50.67
2022-07-29T17:41:51.879Z,51.17
2022-07-29T17:44:38.747Z,50.61
2022-07-29T17:47:16.324Z,50.78
2022-07-29T17:49:49.954Z,50.51
2022-07-29T17:52:25.626Z,50.47
2022-07-29T17:55:06.520Z,50.44
2022-07-29T17:57:35.323Z,50.35
2022-07-29T18:00:02.753Z,50.39
2022-07-29T18:02:32.146Z,50.45
2022-07-29T18:05:08.733Z,50.44
2022-07-29T18:07:48.880Z,50.06
2022-07-29T18:13:07.560Z,50.54
2022-07-29T18:15:35.177Z,50.35
2022-07-29T18:18:14.738Z,50.22
2022-07-29T18:20:48.979Z,50.90
2022-07-29T18:23:24.517Z,50.52
2022-07-29T18:25:57.436Z,51.10
2022-07-29T18:28:27.422Z,50.33
2022-07-29T18:31:04.467Z,51.29
2022-07-29T18:34:04.434Z,50.77
2022-07-29T18:36:52.314Z,50.78
2022-07-29T18:39:22.653Z,50.54
2022-07-29T18:42:06.217Z,50.90
2022-07-29T18:44:43.618Z,50.73
2022-07-29T18:47:32.297Z,50.79
2022-07-29T18:50:09.536Z,50.70
2022-07-29T18:52:48.877Z,50.88
2022-07-29T18:55:34.380Z,50.26
2022-07-29T18:58:07.539Z,50.75
2022-07-29T19:00:41.563Z,50.20
2022-07-29T19:03:16.263Z,50.59
2022-07-29T19:05:50.593Z,51.11
2022-07-29T19:08:26.989Z,51.60
2022-07-29T19:11:05.257Z,51.60
2022-07-29T19:13:37.607Z,51.99
2022-07-29T19:16:21.222Z,52.61
2022-07-29T19:18:55.098Z,52.05
2022-07-29T19:21:31.293Z,53.40
2022-07-29T19:24:07.761Z,52.78
2022-07-29T19:26:49.258Z,52.58
2022-07-29T19:29:27.113Z,53.57
2022-07-29T19:32:04.877Z,53.36
2022-07-29T19:34:40.936Z,53.62
2022-07-29T19:37:27.845Z,52.95
2022-07-29T19:40:03.974Z,53.41
2022-07-29T19:42:38.262Z,52.67
2022-07-29T19:45:23.498Z,52.48
2022-07-29T19:48:07.351Z,52.30
2022-07-29T19:50:47.800Z,52.54
2022-07-29T19:53:16.226Z,52.06
2022-07-29T19:55:48.178Z,51.95
2022-07-29T19:58:28.965Z,51.89
2022-07-29T20:01:14.578Z,51.55
2022-07-29T20:03:52.028Z,51.34
2022-07-29T20:06:31.639Z,51.28
2022-07-29T20:09:17.063Z,50.60
2022-07-29T20:11:55.689Z,50.70
2022-07-29T20:14:34.017Z,50.50
2022-07-29T20:17:09.857Z,50.90
2022-07-29T20:19:50.858Z,50.61
2022-07-29T20:22:21.125Z,50.65
2022-07-29T20:24:56.779Z,50.37
2022-07-29T20:27:43.033Z,50.58
2022-07-29T20:30:16.574Z,50.28
2022-07-29T20:32:48.227Z,50.46
2022-07-29T20:35:32.076Z,51.06
2022-07-29T20:38:02.297Z,51.32
2022-07-29T20:40:40.924Z,51.20
2022-07-29T20:43:21.785Z,51.89
2022-07-29T20:46:01.202Z,53.12
2022-07-29T20:48:46.392Z,53.02
2022-07-29T20:51:32.778Z,53.23
2022-07-29T20:54:32.887Z,52.50
2022-07-29T20:57:11.665Z,52.75
2022-07-29T20:59:52.208Z,53.33
2022-07-29T21:02:31.611Z,53.13
2022-07-29T21:05:30.465Z,53.69
2022-07-29T21:08:01.051Z,52.90
2022-07-29T21:11:01.016Z,52.84
2022-07-29T21:13:43.707Z,52.54
2022-07-29T21:16:51.006Z,53.59
2022-07-29T21:19:32.952Z,53.36
2022-07-29T21:22:28.196Z,52.29
2022-07-29T21:25:12.501Z,52.58
2022-07-29T21:28:25.892Z,52.54
2022-07-29T21:31:12.765Z,52.48
2022-07-29T21:33:54.662Z,52.47
2022-07-29T21:36:48.090Z,52.58
2022-07-29T21:39:16.112Z,52.55
2022-07-29T21:41:51.793Z,52.15
2022-07-29T21:44:28.169Z,52.77
2022-07-29T21:47:03.998Z,52.58
2022-07-29T21:49:41.528Z,52.54
2022-07-29T21:52:19.700Z,52.39
2022-07-29T21:54:59.163Z,52.53
2022-07-29T21:57:52.320Z,51.76
2022-07-29T22:00:29.071Z,52.64
2022-07-29T22:02:59.168Z,52.27
2022-07-29T22:05:33.029Z,52.73
2022-07-29T22:08:01.399Z,51.99
2022-07-29T22:10:30.247Z,52.03
2022-07-29T22:13:01.728Z,52.50
2022-07-29T22:15:29.827Z,51.93
2022-07-29T22:17:58.146Z,52.13
2022-07-29T22:20:31.019Z,52.13
2022-07-29T22:23:01.550Z,51.97
2022-07-29T22:25:32.202Z,51.34
2022-07-29T22:28:00.136Z,52.00
2022-07-29T22:30:29.832Z,51.60
2022-07-29T22:32:57.245Z,51.57
2022-07-29T22:35:24.374Z,51.50
2022-07-29T22:37:53.484Z,51.44
2022-07-29T22:40:20.668Z,51.82
2022-07-29T22:42:47.824Z,51.44
2022-07-29T22:45:14.915Z,51.72
2022-07-29T22:47:48.429Z,51.43
2022-07-29T22:50:16.776Z,51.67
2022-07-29T22:52:52.971Z,51.25
2022-07-29T22:55:23.189Z,51.32
2022-07-29T22:57:50.506Z,51.29
2022-07-29T23:00:17.960Z,51.13
2022-07-29T23:02:45.624Z,51.57
2022-07-29T23:05:18.950Z,51.59
2022-07-29T23:07:46.461Z,51.36
2022-07-29T23:10:13.875Z,51.20
2022-07-29T23:12:44.294Z,51.35
2022-07-29T23:15:11.506Z,51.42
2022-07-29T23:17:38.704Z,51.49
2022-07-29T23:20:09.856Z,51.33
2022-07-29T23:22:37.464Z,51.57
2022-07-29T23:25:08.728Z,51.72
2022-07-29T23:27:38.968Z,51.52
2022-07-29T23:30:12.053Z,51.96
2022-07-29T23:32:47.832Z,51.51
2022-07-29T23:35:21.737Z,51.30
2022-07-29T23:37:54.303Z,51.57
2022-07-29T23:40:26.950Z,51.92
2022-07-29T23:43:02.952Z,51.72
2022-07-29T23:45:42.651Z,52.06
2022-07-29T23:48:18.408Z,51.79
2022-07-29T23:50:48.864Z,51.79
2022-07-29T23:53:21.038Z,51.67
2022-07-29T23:55:48.536Z,51.65
2022-07-29T23:58:21.177Z,52.16
